createdAt,value
2017-11-19T07:41:27.037Z,85.87
2017-11-19T07:44:00.943Z,85.93
2017-11-19T07:46:38.751Z,86.89
2017-11-19T07:49:09.348Z,86.76
2017-11-19T07:51:40.299Z,86.93
2017-11-19T07:54:12.038Z,86.52
2017-11-19T07:56:43.277Z,86.29
2017-11-19T07:59:14.320Z,86.39
2017-11-19T08:04:26.682Z,86.45
2017-11-19T08:06:57.584Z,86.41
2017-11-19T08:09:28.469Z,86.30
2017-11-19T08:14:44.358Z,85.09
2017-11-19T08:17:16.077Z,85.46
2017-11-19T08:19:48.606Z,85.08
2017-11-19T08:22:19.966Z,85.36
2017-11-19T08:24:53.813Z,84.97
2017-11-19T08:27:26.454Z,85.19
2017-11-19T08:43:30.849Z,77.36
2017-11-19T08:50:11.702Z,64.35
2017-11-19T08:52:40.129Z,63.75
2017-11-19T08:57:57.257Z,42.59
2017-11-19T09:00:25.678Z,40.42
2017-11-19T09:02:54.059Z,40.59
2017-11-19T09:05:23.064Z,40.80
2017-11-19T09:07:51.465Z,41.15
2017-11-19T09:10:21.352Z,41.03
2017-11-19T09:12:49.753Z,38.99
2017-11-19T09:15:20.630Z,39.70
2017-11-19T09:17:49.512Z,38.45
2017-11-19T09:20:19.237Z,38.30
2017-11-19T09:22:47.676Z,38.74
2017-11-19T09:25:16.180Z,38.13
2017-11-19T09:27:44.599Z,35.76
2017-11-19T09:30:13.067Z,35.64
2017-11-19T09:39:59.105Z,37.62
2017-11-19T09:42:27.498Z,38.45
2017-11-19T09:44:55.929Z,37.80
2017-11-19T09:47:26.516Z,38.00
2017-11-19T09:49:58.189Z,38.65
2017-11-19T09:52:27.834Z,39.75
2017-11-19T09:55:08.235Z,40.87
2017-11-19T09:57:36.615Z,40.68
2017-11-19T10:00:05.047Z,43.73
2017-11-19T10:02:33.428Z,38.85
2017-11-19T10:05:01.862Z,40.07
2017-11-19T10:07:30.277Z,38.84
2017-11-19T10:10:00.270Z,38.59
2017-11-19T10:12:28.674Z,36.79
2017-11-19T10:14:54.872Z,36.09
2017-11-19T10:17:21.078Z,35.98
2017-11-19T10:19:47.217Z,36.37
2017-11-19T10:22:14.348Z,36.39
2017-11-19T10:24:44.637Z,35.27
2017-11-19T10:27:13.546Z,35.04
2017-11-19T10:29:42.135Z,34.95
2017-11-19T10:32:08.385Z,36.47
2017-11-19T10:34:35.938Z,37.23
2017-11-19T10:37:03.494Z,36.59
2017-11-19T10:39:31.979Z,37.26
2017-11-19T10:41:59.521Z,39.84
2017-11-19T10:44:27.108Z,42.56
2017-11-19T10:46:54.604Z,42.92
2017-11-19T10:49:22.217Z,43.80
2017-11-19T10:51:50.311Z,45.19
2017-11-19T10:54:18.401Z,44.18
2017-11-19T10:56:46.299Z,40.86
2017-11-19T10:59:13.853Z,43.23
2017-11-19T11:01:41.383Z,43.82
2017-11-19T11:04:08.960Z,38.87
2017-11-19T11:06:36.525Z,41.20
2017-11-19T11:09:04.061Z,41.00
2017-11-19T11:11:31.561Z,38.57
2017-11-19T11:13:59.122Z,38.59
2017-11-19T11:16:26.618Z,38.80
2017-11-19T11:18:54.189Z,39.31
2017-11-19T11:21:22.637Z,37.26
2017-11-19T11:23:50.194Z,37.71
2017-11-19T11:26:20.197Z,40.05
2017-11-19T11:28:47.762Z,39.18
2017-11-19T11:31:16.593Z,38.62
2017-11-19T11:33:44.507Z,40.01
2017-11-19T11:36:13.526Z,41.04
2017-11-19T11:38:42.182Z,40.47
2017-11-19T11:41:09.684Z,40.91
2017-11-19T11:43:38.153Z,40.82
2017-11-19T11:46:08.635Z,40.61
2017-11-19T11:48:38.576Z,41.10
2017-11-19T11:51:07.981Z,39.07
2017-11-19T11:53:39.808Z,41.99
2017-11-19T11:56:07.956Z,39.84
2017-11-19T11:58:35.541Z,43.84
2017-11-19T12:01:03.082Z,42.27
2017-11-19T12:03:30.581Z,42.89
2017-11-19T12:05:58.125Z,45.88
2017-11-19T12:08:25.633Z,47.41
2017-11-19T12:10:53.171Z,46.42
2017-11-19T12:13:20.662Z,43.09
2017-11-19T12:15:49.157Z,41.90
2017-11-19T12:18:16.666Z,41.08
2017-11-19T12:20:44.833Z,42.68
2017-11-19T12:23:12.505Z,45.05
2017-11-19T12:25:40.046Z,44.86
2017-11-19T12:28:07.550Z,43.38
2017-11-19T12:30:38.804Z,41.18
2017-11-19T12:33:06.364Z,39.28
2017-11-19T12:35:33.938Z,38.79
2017-11-19T12:52:13.135Z,38.18
2017-11-19T12:54:46.242Z,38.20
2017-11-19T12:57:21.329Z,37.48
2017-11-19T12:59:54.467Z,37.55
2017-11-19T13:02:26.215Z,37.15
2017-11-19T13:05:14.579Z,37.42
2017-11-19T13:07:48.238Z,37.45
2017-11-19T13:10:18.289Z,38.07
2017-11-19T13:12:49.494Z,38.08
2017-11-19T13:15:22.418Z,37.86
2017-11-19T13:17:53.025Z,37.72
2017-11-19T13:20:24.487Z,38.08
2017-11-19T13:34:39.518Z,39.88
2017-11-19T13:37:08.950Z,39.44
2017-11-19T13:39:39.639Z,39.49
2017-11-19T13:42:10.996Z,39.92
2017-11-19T13:47:08.231Z,33.88
2017-11-19T13:49:39.832Z,34.09
2017-11-19T13:52:09.390Z,33.73
2017-11-19T14:02:58.314Z,58.10
2017-11-19T14:05:32.075Z,65.83
2017-11-19T14:08:08.308Z,69.88
2017-11-19T14:10:42.462Z,72.32
2017-11-19T14:13:17.304Z,74.98
2017-11-19T14:15:48.109Z,75.78
2017-11-19T14:18:21.292Z,76.47
2017-11-19T14:20:53.793Z,76.95
2017-11-19T14:23:23.733Z,76.93
2017-11-19T14:26:01.601Z,77.68
2017-11-19T14:28:32.380Z,78.04
2017-11-19T14:31:02.472Z,77.34
2017-11-19T14:33:37.133Z,77.39
2017-11-19T14:36:07.976Z,77.26
2017-11-19T14:38:37.621Z,77.08
2017-11-19T14:41:07.551Z,77.69
2017-11-19T14:43:39.114Z,77.14
2017-11-19T14:46:17.704Z,77.59
2017-11-19T14:48:48.632Z,77.34
2017-11-19T14:51:18.541Z,77.10
2017-11-19T14:53:48.399Z,77.81
2017-11-19T14:56:18.027Z,78.28
2017-11-19T15:01:26.023Z,78.11
2017-11-19T15:03:56.510Z,78.59
2017-11-19T15:06:26.785Z,77.98
2017-11-19T15:08:57.984Z,78.17
2017-11-19T15:11:30.809Z,78.62
2017-11-19T15:14:02.926Z,78.21
2017-11-19T15:16:37.588Z,79.13
2017-11-19T15:19:11.263Z,79.10
2017-11-19T15:21:45.905Z,80.22
2017-11-19T15:24:16.665Z,79.97
2017-11-19T15:26:46.587Z,79.93
2017-11-19T15:29:34.979Z,80.26
2017-11-19T15:32:13.281Z,79.27
2017-11-19T15:36:32.363Z,79.36
2017-11-19T15:39:02.510Z,79.08
2017-11-19T15:41:32.691Z,79.15
2017-11-19T15:44:07.302Z,78.77
2017-11-19T15:46:40.153Z,79.53
2017-11-19T15:49:10.201Z,79.28
2017-11-19T15:51:40.034Z,79.69
2017-11-19T15:54:10.842Z,79.53
2017-11-19T15:56:41.307Z,79.64
2017-11-19T15:59:11.225Z,79.87
2017-11-19T16:01:53.056Z,79.71
2017-11-19T16:04:22.861Z,79.19
2017-11-19T16:06:55.749Z,79.43
2017-11-19T16:09:25.906Z,79.83
2017-11-19T16:11:57.915Z,79.29
2017-11-19T16:14:28.600Z,79.37
2017-11-19T16:17:04.988Z,79.64
2017-11-19T16:19:39.744Z,79.63
2017-11-19T16:22:09.817Z,79.86
2017-11-19T16:24:40.978Z,80.11
2017-11-19T16:27:13.714Z,80.09
2017-11-19T16:29:43.797Z,80.04
2017-11-19T16:32:17.034Z,80.35
2017-11-19T16:34:47.060Z,80.40
2017-11-19T16:37:21.213Z,80.49
2017-11-19T16:39:51.012Z,80.66
2017-11-19T16:42:24.901Z,81.49
2017-11-19T16:45:00.456Z,81.25
2017-11-19T16:47:30.582Z,81.55
2017-11-19T16:50:00.569Z,81.54
2017-11-19T16:52:30.879Z,81.37
2017-11-19T16:55:01.502Z,81.75
2017-11-19T16:57:44.100Z,81.37
2017-11-19T17:05:55.628Z,81.04
2017-11-19T17:08:28.995Z,81.52
2017-11-19T17:10:59.188Z,81.18
2017-11-19T17:13:29.216Z,81.13
2017-11-19T17:16:04.666Z,80.65
2017-11-19T17:18:37.007Z,80.75
2017-11-19T17:21:11.663Z,80.40
2017-11-19T17:23:41.734Z,80.47
2017-11-19T17:26:15.080Z,80.58
2017-11-19T17:28:50.450Z,80.67
2017-11-19T17:31:20.491Z,80.85
2017-11-19T17:33:54.225Z,81.19
2017-11-19T17:36:28.324Z,80.52
2017-11-19T17:38:58.408Z,80.62
2017-11-19T17:41:32.754Z,80.35
2017-11-19T17:44:08.491Z,80.34
2017-11-19T17:46:53.366Z,79.88
2017-11-19T17:49:26.395Z,80.59
2017-11-19T17:51:59.468Z,80.58
2017-11-19T17:54:29.532Z,80.39
2017-11-19T17:57:04.443Z,80.67
2017-11-19T17:59:42.040Z,80.05
2017-11-19T18:02:19.619Z,80.38
2017-11-19T18:04:53.018Z,80.10
2017-11-19T18:07:26.745Z,79.58
2017-11-19T18:09:56.873Z,79.83
2017-11-19T18:12:26.965Z,79.58
2017-11-19T18:14:57.513Z,79.49
2017-11-19T18:17:34.414Z,79.54
2017-11-19T18:20:09.415Z,79.27
2017-11-19T18:22:39.994Z,78.77
2017-11-19T18:25:09.963Z,79.10
2017-11-19T18:27:44.911Z,78.70
2017-11-19T18:30:14.922Z,79.07
2017-11-19T18:32:45.484Z,79.13
2017-11-19T18:35:15.866Z,79.24
2017-11-19T18:37:46.142Z,79.04
2017-11-19T18:40:17.060Z,79.66
2017-11-19T18:42:49.038Z,79.34
2017-11-19T18:45:19.569Z,79.70
2017-11-19T18:47:50.789Z,79.57
2017-11-19T18:50:22.898Z,79.74
2017-11-19T18:52:53.094Z,79.75
2017-11-19T18:55:23.158Z,79.89
2017-11-19T18:57:53.401Z,79.80
2017-11-19T19:00:26.166Z,79.71
2017-11-19T19:02:56.618Z,79.41
2017-11-19T19:05:28.017Z,79.53
2017-11-19T19:07:58.845Z,79.55
2017-11-19T19:10:39.129Z,79.91
2017-11-19T19:13:13.282Z,79.42
2017-11-19T19:15:44.927Z,79.58
2017-11-19T19:18:19.205Z,79.74
2017-11-19T19:20:51.696Z,79.73
2017-11-19T19:23:26.221Z,80.79
2017-11-19T19:26:08.464Z,80.46
2017-11-19T19:28:44.746Z,79.95
2017-11-19T19:31:22.848Z,80.20
2017-11-19T19:34:14.063Z,80.57
2017-11-19T19:36:48.404Z,80.22
2017-11-19T19:39:29.149Z,80.14
2017-11-19T19:42:05.769Z,80.18
2017-11-19T19:44:36.905Z,80.13
2017-11-19T19:47:19.255Z,80.13
2017-11-19T19:49:49.495Z,80.33
2017-11-19T19:52:20.297Z,80.47
2017-11-19T19:54:51.066Z,80.11
2017-11-19T19:57:21.060Z,79.95
2017-11-19T19:59:52.947Z,79.75
2017-11-19T20:02:22.876Z,80.20
2017-11-19T20:04:56.392Z,79.78
2017-11-19T20:07:32.769Z,79.79
2017-11-19T20:10:32.951Z,79.99
2017-11-19T20:15:52.685Z,79.95
2017-11-19T20:18:23.981Z,80.12
2017-11-19T20:21:07.080Z,80.26
2017-11-19T20:23:37.319Z,80.44
2017-11-19T20:26:36.594Z,80.54
2017-11-19T20:29:17.221Z,80.85
2017-11-19T20:31:51.812Z,80.99
2017-11-19T20:34:44.173Z,81.19
2017-11-19T20:37:17.586Z,81.08
2017-11-19T20:39:55.014Z,81.08
2017-11-19T20:42:26.095Z,80.81
2017-11-19T20:44:56.736Z,80.97
2017-11-19T20:47:34.955Z,81.28
2017-11-19T20:50:09.110Z,81.33
2017-11-19T20:52:39.804Z,81.25
2017-11-19T20:55:12.911Z,81.37
2017-11-19T20:57:45.607Z,81.62
2017-11-19T21:00:22.836Z,81.42
2017-11-19T21:02:58.886Z,81.64
2017-11-19T21:05:38.476Z,81.61
2017-11-19T21:11:17.762Z,81.61
2017-11-19T21:13:51.996Z,81.37
2017-11-19T21:16:24.020Z,81.30
2017-11-19T21:18:54.939Z,81.23
2017-11-19T21:21:31.000Z,81.27
2017-11-19T21:24:03.066Z,81.63
2017-11-19T21:26:37.685Z,81.96
2017-11-19T21:29:10.688Z,81.92
2017-11-19T21:31:43.253Z,82.05
2017-11-19T21:34:17.857Z,81.49
2017-11-19T21:36:50.064Z,81.17
2017-11-19T21:39:20.236Z,81.72
2017-11-19T21:41:50.145Z,81.34
2017-11-19T21:44:20.061Z,81.64
2017-11-19T21:46:50.064Z,83.08
2017-11-19T21:49:20.535Z,83.13
2017-11-19T21:51:50.412Z,83.27
2017-11-19T21:54:20.378Z,83.86
2017-11-19T21:56:54.269Z,84.13
2017-11-19T21:59:23.935Z,83.86
2017-11-19T22:01:53.592Z,83.48
2017-11-19T22:04:39.382Z,83.45
2017-11-19T22:07:09.797Z,83.55
2017-11-19T22:09:43.043Z,83.25
2017-11-19T22:12:15.570Z,83.34
2017-11-19T22:14:45.835Z,82.89
2017-11-19T22:17:16.765Z,83.17
2017-11-19T22:19:46.649Z,83.08
2017-11-19T22:22:16.882Z,83.05
2017-11-19T22:24:47.527Z,82.80
2017-11-19T22:27:17.491Z,82.63
2017-11-19T22:29:47.400Z,82.52
2017-11-19T22:32:19.150Z,82.26
2017-11-19T22:34:49.363Z,82.41
2017-11-19T22:37:19.308Z,81.85
2017-11-19T22:39:49.185Z,81.81
2017-11-19T22:42:18.845Z,82.22
2017-11-19T22:44:48.762Z,81.62
2017-11-19T22:47:18.445Z,81.63
2017-11-19T22:49:48.319Z,82.00
2017-11-19T22:52:18.825Z,82.29
2017-11-19T22:54:50.405Z,82.43
2017-11-19T22:57:21.118Z,82.56
2017-11-19T22:59:51.501Z,82.63
2017-11-19T23:02:21.374Z,82.57
2017-11-19T23:05:00.140Z,82.11
2017-11-19T23:07:38.991Z,82.38
2017-11-19T23:10:15.346Z,82.77
2017-11-19T23:12:47.636Z,82.50
2017-11-19T23:15:34.206Z,82.38
2017-11-19T23:18:04.642Z,82.03
2017-11-19T23:20:34.560Z,82.33
2017-11-19T23:23:04.525Z,81.79
2017-11-19T23:25:34.518Z,82.08
2017-11-19T23:28:04.436Z,82.16
2017-11-19T23:30:34.540Z,82.32
2017-11-19T23:33:05.387Z,81.72
2017-11-19T23:35:35.386Z,81.63
2017-11-19T23:38:05.640Z,81.27
2017-11-19T23:40:35.978Z,81.62
2017-11-19T23:43:06.015Z,81.88
2017-11-19T23:45:37.323Z,81.65
2017-11-19T23:48:07.644Z,81.81
2017-11-19T23:50:37.887Z,81.51
2017-11-19T23:53:09.598Z,81.23
2017-11-19T23:55:40.230Z,81.82
2017-11-19T23:58:14.156Z,82.26
